createdAt,value
2018-06-05T00:00:16.561Z,62.43
2018-06-05T00:01:26.539Z,62.44
2018-06-05T00:02:16.969Z,62.42
2018-06-05T00:03:16.197Z,62.42
2018-06-05T00:04:16.366Z,62.44
2018-06-05T00:05:16.349Z,62.46
2018-06-05T00:06:16.132Z,62.45
2018-06-05T00:07:16.314Z,62.43
2018-06-05T00:08:16.189Z,62.46
2018-06-05T00:09:16.105Z,62.46
2018-06-05T00:10:16.286Z,62.46
2018-06-05T00:11:16.474Z,62.46
2018-06-05T00:12:16.396Z,62.46
2018-06-05T00:13:16.248Z,62.5
2018-06-05T00:14:16.133Z,62.44
2018-06-05T00:15:16.291Z,62.48
2018-06-05T00:16:16.138Z,62.42
2018-06-05T00:17:16.127Z,62.4
2018-06-05T00:18:16.215Z,62.44
2018-06-05T00:19:16.314Z,62.46
2018-06-05T00:20:16.691Z,62.47
2018-06-05T00:21:16.301Z,62.43
2018-06-05T00:22:16.459Z,62.45
2018-06-05T00:23:16.187Z,62.46
2018-06-05T00:24:16.314Z,62.48
2018-06-05T00:25:16.216Z,62.46
2018-06-05T00:26:16.500Z,62.46
2018-06-05T00:27:16.306Z,62.46
2018-06-05T00:28:16.584Z,62.47
2018-06-05T00:29:16.419Z,62.46
2018-06-05T00:30:16.161Z,62.46
2018-06-05T00:31:16.095Z,62.44
2018-06-05T00:32:16.709Z,62.47
2018-06-05T00:33:16.582Z,62.46
2018-06-05T00:34:16.109Z,62.45
2018-06-05T00:35:16.033Z,62.46
2018-06-05T00:36:16.324Z,62.47
2018-06-05T00:37:16.390Z,62.46
2018-06-05T00:38:16.153Z,62.44
2018-06-05T00:39:16.505Z,62.47
2018-06-05T00:40:16.144Z,62.47
2018-06-05T00:41:16.155Z,62.46
2018-06-05T00:42:16.568Z,62.49
2018-06-05T00:43:16.293Z,62.44
2018-06-05T00:44:16.150Z,62.48
2018-06-05T00:45:16.322Z,62.47
2018-06-05T00:46:16.264Z,62.48
2018-06-05T00:47:16.379Z,62.48
2018-06-05T00:48:16.183Z,62.51
2018-06-05T00:49:16.314Z,62.47
2018-06-05T00:50:16.208Z,62.45
2018-06-05T00:51:16.243Z,62.49
2018-06-05T00:52:16.562Z,62.47
2018-06-05T00:53:16.084Z,62.47
2018-06-05T00:54:16.285Z,62.5
2018-06-05T00:55:16.122Z,62.48
2018-06-05T00:56:16.311Z,62.48
2018-06-05T00:57:16.430Z,62.43
2018-06-05T00:58:16.380Z,62.47
2018-06-05T00:59:16.115Z,62.48
2018-06-05T01:00:16.316Z,62.48
2018-06-05T01:01:16.255Z,62.46
2018-06-05T01:02:16.179Z,62.48
2018-06-05T01:03:16.381Z,62.45
2018-06-05T01:04:16.233Z,62.45
2018-06-05T01:05:16.299Z,62.48
2018-06-05T01:06:16.330Z,62.48
2018-06-05T01:07:16.291Z,62.48
2018-06-05T01:08:16.152Z,62.52
2018-06-05T01:09:16.640Z,62.47
2018-06-05T01:10:16.226Z,62.48
2018-06-05T01:11:16.172Z,62.5
2018-06-05T01:12:16.138Z,62.5
2018-06-05T01:13:16.611Z,62.47
2018-06-05T01:14:16.064Z,62.47
2018-06-05T01:15:16.176Z,62.47
2018-06-05T01:16:16.172Z,62.44
2018-06-05T01:17:16.269Z,62.52
2018-06-05T01:18:16.060Z,62.42
2018-06-05T01:19:16.317Z,62.48
2018-06-05T01:20:16.559Z,62.48
2018-06-05T01:21:16.156Z,62.51
2018-06-05T01:22:16.097Z,62.5
2018-06-05T01:23:16.080Z,62.49
2018-06-05T01:24:16.184Z,62.49
2018-06-05T01:25:16.224Z,62.46
2018-06-05T01:26:16.294Z,62.5
2018-06-05T01:27:16.328Z,62.51
2018-06-05T01:28:16.145Z,62.48
2018-06-05T01:29:16.281Z,62.48
2018-06-05T01:30:16.306Z,62.48
2018-06-05T01:31:16.451Z,62.49
2018-06-05T01:32:16.482Z,62.5
2018-06-05T01:33:18.949Z,62.46
2018-06-05T01:34:16.717Z,62.47
2018-06-05T01:35:16.278Z,62.46
2018-06-05T01:36:16.240Z,62.46
2018-06-05T01:37:16.373Z,62.49
2018-06-05T01:38:16.598Z,62.48
2018-06-05T01:39:16.237Z,62.49
2018-06-05T01:40:16.538Z,62.47
2018-06-05T01:41:18.890Z,62.49
2018-06-05T01:42:18.737Z,62.47
2018-06-05T01:43:16.753Z,62.49
2018-06-05T01:44:18.889Z,62.5
2018-06-05T01:45:16.717Z,62.5
2018-06-05T01:46:16.344Z,62.48
2018-06-05T01:47:16.333Z,62.49
2018-06-05T01:48:16.504Z,62.49
2018-06-05T01:49:16.349Z,62.51
2018-06-05T01:50:16.403Z,62.51
2018-06-05T01:51:26.161Z,62.5
2018-06-05T01:52:16.570Z,62.49
2018-06-05T01:53:16.510Z,62.49
2018-06-05T01:54:16.311Z,62.46
2018-06-05T01:55:16.290Z,62.48
2018-06-05T01:56:16.397Z,62.5
2018-06-05T01:57:16.551Z,62.49
2018-06-05T01:58:16.256Z,62.51
2018-06-05T01:59:16.422Z,62.46
2018-06-05T02:00:16.327Z,62.47
2018-06-05T02:01:16.270Z,62.48
2018-06-05T02:02:19.403Z,62.48
2018-06-05T02:03:18.528Z,62.48
2018-06-05T02:04:26.294Z,62.47
2018-06-05T02:05:18.612Z,62.48
2018-06-05T02:06:16.271Z,62.47
2018-06-05T02:07:16.409Z,62.46
2018-06-05T02:08:16.261Z,62.47
2018-06-05T02:09:17.079Z,62.48
2018-06-05T02:10:16.471Z,62.48
2018-06-05T02:11:18.425Z,62.49
2018-06-05T02:12:16.397Z,62.44
2018-06-05T02:13:16.477Z,62.48
2018-06-05T02:14:16.559Z,62.49
2018-06-05T02:15:16.384Z,62.46
2018-06-05T02:16:16.497Z,62.5
2018-06-05T02:17:16.395Z,62.49
2018-06-05T02:18:16.526Z,62.48
2018-06-05T02:19:16.340Z,62.48
2018-06-05T02:20:16.538Z,62.5
2018-06-05T02:21:16.592Z,62.48
2018-06-05T02:22:16.426Z,62.51
2018-06-05T02:23:18.241Z,62.51
2018-06-05T02:24:16.428Z,62.52
2018-06-05T02:25:18.360Z,62.5
2018-06-05T02:26:18.853Z,62.51
2018-06-05T02:27:16.433Z,62.52
2018-06-05T02:28:16.416Z,62.43
2018-06-05T02:29:16.148Z,62.47
2018-06-05T02:30:16.267Z,62.49
2018-06-05T02:31:16.055Z,62.5
2018-06-05T02:32:16.274Z,62.52
2018-06-05T02:33:16.266Z,62.51
2018-06-05T02:34:16.787Z,62.51
2018-06-05T02:35:16.350Z,62.49
2018-06-05T02:36:16.514Z,62.48
2018-06-05T02:37:16.164Z,62.53
2018-06-05T02:38:16.163Z,62.48
2018-06-05T02:39:16.243Z,62.49
2018-06-05T02:40:16.085Z,62.48
2018-06-05T02:41:16.296Z,62.46
2018-06-05T02:42:16.284Z,62.47
2018-06-05T02:43:16.407Z,62.5
2018-06-05T02:44:16.228Z,62.49
2018-06-05T02:45:16.336Z,62.5
2018-06-05T02:46:16.136Z,62.49
2018-06-05T02:47:16.191Z,62.51
2018-06-05T02:48:16.336Z,62.48
2018-06-05T02:49:16.459Z,62.49
2018-06-05T02:50:16.097Z,62.54
2018-06-05T02:51:16.047Z,62.48
2018-06-05T02:52:16.144Z,62.48
2018-06-05T02:53:16.398Z,62.5
2018-06-05T02:54:16.318Z,62.51
2018-06-05T02:55:16.299Z,62.48
2018-06-05T02:56:16.351Z,62.53
2018-06-05T02:57:16.085Z,62.51
2018-06-05T02:58:16.087Z,62.51
2018-06-05T02:59:16.283Z,62.48
2018-06-05T03:00:16.655Z,62.51
2018-06-05T03:01:16.103Z,62.48
2018-06-05T03:02:16.123Z,62.49
2018-06-05T03:03:16.238Z,62.48
2018-06-05T03:04:16.294Z,62.51
2018-06-05T03:05:16.606Z,62.51
2018-06-05T03:06:16.083Z,62.5
2018-06-05T03:07:16.397Z,62.51
2018-06-05T03:08:16.292Z,62.51
2018-06-05T03:09:16.153Z,62.49
2018-06-05T03:10:16.263Z,62.5
2018-06-05T03:11:16.746Z,62.47
2018-06-05T03:12:16.259Z,62.49
2018-06-05T03:13:16.050Z,62.49
2018-06-05T03:14:16.496Z,62.47
2018-06-05T03:15:16.674Z,62.48
2018-06-05T03:16:16.154Z,62.46
2018-06-05T03:17:16.340Z,62.49
2018-06-05T03:18:16.140Z,62.48
2018-06-05T03:19:16.064Z,62.55
2018-06-05T03:20:16.237Z,62.48
2018-06-05T03:21:16.541Z,62.53
2018-06-05T03:22:16.278Z,62.51
2018-06-05T03:23:16.276Z,62.48
2018-06-05T03:24:16.541Z,62.49
2018-06-05T03:25:16.034Z,62.51
2018-06-05T03:26:16.157Z,62.48
2018-06-05T03:27:16.152Z,62.51
2018-06-05T03:28:16.441Z,62.48
2018-06-05T03:29:16.218Z,62.49
2018-06-05T03:30:16.117Z,62.5
2018-06-05T03:31:16.278Z,62.49
2018-06-05T03:32:16.270Z,62.51
2018-06-05T03:33:16.056Z,62.49
2018-06-05T03:34:16.243Z,62.49
2018-06-05T03:35:16.123Z,62.51
2018-06-05T03:36:16.567Z,62.47
2018-06-05T03:37:16.271Z,62.5
2018-06-05T03:38:16.132Z,62.51
2018-06-05T03:39:16.336Z,62.48
2018-06-05T03:40:16.159Z,62.51
2018-06-05T03:41:16.282Z,62.51
2018-06-05T03:42:16.239Z,62.5
2018-06-05T03:43:16.223Z,62.48
2018-06-05T03:44:16.264Z,62.45
2018-06-05T03:45:16.169Z,62.52
2018-06-05T03:46:16.319Z,62.49
2018-06-05T03:47:16.043Z,62.49
2018-06-05T03:48:16.236Z,62.49
2018-06-05T03:49:16.701Z,62.51
2018-06-05T03:50:16.296Z,62.48
2018-06-05T03:51:16.440Z,62.47
2018-06-05T03:52:16.440Z,62.48
2018-06-05T03:53:16.024Z,62.51
2018-06-05T03:54:16.065Z,62.48
2018-06-05T03:55:16.264Z,62.52
2018-06-05T03:56:16.223Z,62.45
2018-06-05T03:57:16.365Z,62.51
2018-06-05T03:58:16.191Z,62.52
2018-06-05T03:59:16.496Z,62.49
2018-06-05T04:00:16.377Z,62.5
2018-06-05T04:01:16.180Z,62.53
2018-06-05T04:02:16.585Z,62.51
2018-06-05T04:03:16.374Z,62.51
2018-06-05T04:04:16.260Z,62.48
2018-06-05T04:05:16.670Z,62.51
2018-06-05T04:06:16.430Z,62.54
2018-06-05T04:07:16.720Z,62.54
2018-06-05T04:08:16.354Z,62.51
2018-06-05T04:09:16.061Z,62.48
2018-06-05T04:10:16.289Z,62.51
2018-06-05T04:11:16.338Z,62.49
2018-06-05T04:12:16.181Z,62.5
2018-06-05T04:13:16.705Z,62.51
2018-06-05T04:14:16.237Z,62.52
2018-06-05T04:15:15.936Z,62.48
2018-06-05T04:16:16.257Z,62.49
2018-06-05T04:17:16.157Z,62.45
2018-06-05T04:18:16.273Z,62.49
2018-06-05T04:19:16.223Z,62.45
2018-06-05T04:20:16.079Z,62.54
2018-06-05T04:21:16.411Z,62.49
2018-06-05T04:22:16.445Z,62.48
2018-06-05T04:23:16.197Z,62.51
2018-06-05T04:24:16.524Z,62.48
2018-06-05T04:25:16.066Z,62.49
2018-06-05T04:26:16.032Z,62.52
2018-06-05T04:27:16.032Z,62.44
2018-06-05T04:28:16.299Z,62.48
2018-06-05T04:29:16.260Z,62.47
2018-06-05T04:30:16.167Z,62.5
2018-06-05T04:31:16.163Z,62.52
2018-06-05T04:32:16.188Z,62.49
2018-06-05T04:33:16.110Z,62.48
2018-06-05T04:34:16.161Z,62.5
2018-06-05T04:35:16.089Z,62.49
2018-06-05T04:36:16.186Z,62.48
2018-06-05T04:37:16.147Z,62.47
2018-06-05T04:38:16.186Z,62.47
2018-06-05T04:39:16.183Z,62.5
2018-06-05T04:40:16.402Z,62.48
2018-06-05T04:41:16.116Z,62.48
2018-06-05T04:42:16.047Z,62.51
2018-06-05T04:43:16.231Z,62.49
2018-06-05T04:44:16.199Z,62.47
2018-06-05T04:45:16.479Z,62.5
2018-06-05T04:46:16.100Z,62.47
2018-06-05T04:47:16.222Z,62.46
2018-06-05T04:48:16.117Z,62.51
2018-06-05T04:49:16.161Z,62.49
2018-06-05T04:50:16.250Z,62.51
2018-06-05T04:51:16.576Z,62.49
2018-06-05T04:52:16.147Z,62.5
2018-06-05T04:53:17.051Z,62.48
2018-06-05T04:54:16.711Z,62.52
2018-06-05T04:55:16.240Z,62.46
2018-06-05T04:56:16.061Z,62.48
2018-06-05T04:57:16.290Z,62.52
2018-06-05T04:58:16.178Z,62.46
2018-06-05T04:59:16.330Z,62.51
2018-06-05T05:00:16.166Z,62.5
2018-06-05T05:01:16.173Z,62.48
2018-06-05T05:02:16.040Z,62.48
2018-06-05T05:03:16.152Z,62.51
2018-06-05T05:04:16.151Z,62.5
2018-06-05T05:05:16.318Z,62.51
2018-06-05T05:06:16.024Z,62.48
2018-06-05T05:07:16.059Z,62.51
2018-06-05T05:08:16.129Z,62.48
2018-06-05T05:09:16.156Z,62.52
2018-06-05T05:10:16.330Z,62.49
2018-06-05T05:11:16.468Z,62.48
2018-06-05T05:12:16.187Z,62.5
2018-06-05T05:13:16.193Z,62.51
2018-06-05T05:14:16.107Z,62.48
2018-06-05T05:15:16.200Z,62.51
2018-06-05T05:16:16.741Z,62.49
2018-06-05T05:17:16.132Z,62.55
2018-06-05T05:18:16.041Z,62.51
2018-06-05T05:19:16.020Z,62.5
2018-06-05T05:20:16.173Z,62.48
2018-06-05T05:21:16.117Z,62.5
2018-06-05T05:22:15.998Z,62.5
2018-06-05T05:23:16.560Z,62.52
2018-06-05T05:24:16.358Z,62.46
2018-06-05T05:25:16.194Z,62.48
2018-06-05T05:26:16.597Z,62.48
2018-06-05T05:27:16.179Z,62.47
2018-06-05T05:28:16.285Z,62.51
2018-06-05T05:29:16.314Z,62.53
2018-06-05T05:30:16.248Z,62.47
2018-06-05T05:31:16.574Z,62.48
2018-06-05T05:32:16.595Z,62.48
2018-06-05T05:33:16.065Z,62.46
2018-06-05T05:34:16.263Z,62.47
2018-06-05T05:35:16.378Z,62.49
2018-06-05T05:36:16.169Z,62.48
2018-06-05T05:37:16.383Z,62.5
2018-06-05T05:38:16.257Z,62.48
2018-06-05T05:39:17.176Z,62.49
2018-06-05T05:40:16.287Z,62.45
2018-06-05T05:41:16.182Z,62.46
2018-06-05T05:42:16.104Z,62.47
2018-06-05T05:43:16.196Z,62.48
2018-06-05T05:44:16.253Z,62.48
2018-06-05T05:45:16.396Z,62.5
2018-06-05T05:46:16.015Z,62.47
2018-06-05T05:47:16.279Z,62.51
2018-06-05T05:48:16.097Z,62.51
2018-06-05T05:49:16.250Z,62.5
2018-06-05T05:50:16.165Z,62.5
2018-06-05T05:51:16.603Z,62.49
2018-06-05T05:52:15.997Z,62.49
2018-06-05T05:53:16.181Z,62.49
2018-06-05T05:54:16.083Z,62.48
2018-06-05T05:55:16.158Z,62.51
2018-06-05T05:56:16.097Z,62.48
2018-06-05T05:57:16.039Z,62.47
2018-06-05T05:58:16.202Z,62.5
2018-06-05T05:59:16.428Z,62.48
2018-06-05T06:00:16.224Z,62.5
2018-06-05T06:01:16.227Z,62.47
2018-06-05T06:02:16.160Z,62.5
2018-06-05T06:03:16.419Z,62.47
2018-06-05T06:04:16.215Z,62.46
2018-06-05T06:05:16.436Z,62.46
2018-06-05T06:06:15.978Z,62.45
2018-06-05T06:07:16.362Z,62.47
2018-06-05T06:08:16.732Z,62.46
2018-06-05T06:09:16.040Z,62.49
2018-06-05T06:10:16.205Z,62.46
2018-06-05T06:11:16.072Z,62.49
2018-06-05T06:12:16.224Z,62.5
2018-06-05T06:13:16.210Z,62.53
2018-06-05T06:14:16.054Z,62.46
2018-06-05T06:15:16.121Z,62.47
2018-06-05T06:16:16.096Z,62.47
2018-06-05T06:17:15.996Z,62.51
2018-06-05T06:18:16.138Z,62.52
2018-06-05T06:19:16.344Z,62.46
2018-06-05T06:20:16.240Z,62.49
2018-06-05T06:21:16.442Z,62.48
2018-06-05T06:22:16.267Z,62.47
2018-06-05T06:23:16.038Z,62.49
2018-06-05T06:24:16.072Z,62.47
2018-06-05T06:25:16.502Z,62.48
2018-06-05T06:26:16.189Z,62.5
2018-06-05T06:27:16.371Z,62.5
2018-06-05T06:28:16.382Z,62.46
2018-06-05T06:29:16.221Z,62.51
2018-06-05T06:30:16.120Z,62.5
2018-06-05T06:31:16.267Z,62.49
2018-06-05T06:32:16.264Z,62.47
2018-06-05T06:33:16.227Z,62.49
2018-06-05T06:34:16.352Z,62.47
2018-06-05T06:35:16.587Z,62.5
2018-06-05T06:36:16.006Z,62.54
2018-06-05T06:37:16.156Z,62.5
2018-06-05T06:38:16.170Z,62.49
2018-06-05T06:39:16.092Z,62.49
2018-06-05T06:40:16.146Z,62.51
2018-06-05T06:41:16.919Z,62.47
2018-06-05T06:42:16.371Z,62.49
2018-06-05T06:43:16.200Z,62.47
2018-06-05T06:44:16.294Z,62.51
2018-06-05T06:45:16.052Z,62.5
2018-06-05T06:46:16.014Z,62.48
2018-06-05T06:47:16.009Z,62.47
2018-06-05T06:48:16.101Z,62.44
2018-06-05T06:49:16.207Z,62.5
2018-06-05T06:50:16.247Z,62.48
2018-06-05T06:51:16.268Z,62.49
2018-06-05T06:52:16.554Z,62.47
2018-06-05T06:53:16.024Z,62.5
2018-06-05T06:54:16.062Z,62.47
2018-06-05T06:55:16.083Z,62.46
2018-06-05T06:56:16.184Z,62.5
2018-06-05T06:57:16.184Z,62.46
2018-06-05T06:58:16.266Z,62.47
2018-06-05T06:59:16.599Z,62.52
2018-06-05T07:00:16.626Z,62.47
2018-06-05T07:01:15.986Z,62.49
2018-06-05T07:02:16.223Z,62.51
2018-06-05T07:03:16.122Z,62.48
2018-06-05T07:04:16.259Z,62.47
2018-06-05T07:05:16.259Z,62.51
2018-06-05T07:06:26.627Z,62.47
2018-06-05T07:07:16.053Z,62.49
2018-06-05T07:08:16.213Z,62.52
2018-06-05T07:09:16.089Z,62.53
2018-06-05T07:10:16.127Z,62.46
2018-06-05T07:11:16.054Z,62.51
2018-06-05T07:12:16.659Z,62.48
2018-06-05T07:13:16.166Z,62.5
2018-06-05T07:14:16.302Z,62.48
2018-06-05T07:15:16.120Z,62.5
2018-06-05T07:16:16.293Z,62.48
2018-06-05T07:17:16.029Z,62.47
2018-06-05T07:18:17.068Z,62.48
2018-06-05T07:19:16.125Z,62.48
2018-06-05T07:20:16.188Z,62.46
2018-06-05T07:21:16.106Z,62.49
2018-06-05T07:22:16.059Z,62.47
2018-06-05T07:23:16.341Z,62.48
2018-06-05T07:24:16.281Z,62.46
2018-06-05T07:25:16.080Z,62.49
2018-06-05T07:26:16.285Z,62.52
2018-06-05T07:27:16.354Z,62.49
2018-06-05T07:28:16.083Z,62.47
2018-06-05T07:29:16.536Z,62.47
2018-06-05T07:30:17.499Z,62.5
2018-06-05T07:31:16.010Z,62.44
2018-06-05T07:32:16.118Z,62.48
2018-06-05T07:33:15.970Z,62.44
2018-06-05T07:34:16.091Z,62.41
2018-06-05T07:35:16.380Z,62.48
2018-06-05T07:36:16.231Z,62.49
2018-06-05T07:37:16.364Z,62.5
2018-06-05T07:38:16.661Z,62.44
2018-06-05T07:39:16.227Z,62.48
2018-06-05T07:40:15.993Z,62.47
2018-06-05T07:41:16.097Z,62.47
2018-06-05T07:42:16.531Z,62.48
2018-06-05T07:43:16.584Z,62.49
2018-06-05T07:44:16.231Z,62.49
2018-06-05T07:45:16.155Z,62.47
2018-06-05T07:46:16.237Z,62.48
2018-06-05T07:47:16.131Z,62.46
2018-06-05T07:48:16.243Z,62.48
2018-06-05T07:49:16.157Z,62.47
2018-06-05T07:50:16.204Z,62.45
2018-06-05T07:51:15.981Z,62.52
2018-06-05T07:52:16.104Z,62.47
2018-06-05T07:53:16.173Z,62.47
2018-06-05T07:54:16.217Z,62.46
2018-06-05T07:55:16.566Z,62.46
2018-06-05T07:56:16.068Z,62.45
2018-06-05T07:57:16.353Z,62.44
2018-06-05T07:58:16.059Z,62.46
2018-06-05T07:59:16.130Z,62.48
2018-06-05T08:00:16.178Z,62.45
2018-06-05T08:01:16.135Z,62.48
2018-06-05T08:02:15.906Z,62.44
2018-06-05T08:03:16.166Z,62.45
2018-06-05T08:04:16.287Z,62.45
2018-06-05T08:05:16.661Z,62.45
2018-06-05T08:06:16.733Z,62.46
2018-06-05T08:07:16.109Z,62.44
2018-06-05T08:08:16.168Z,62.49
2018-06-05T08:09:16.169Z,62.48
2018-06-05T08:10:16.236Z,62.45
2018-06-05T08:11:15.955Z,62.43
2018-06-05T08:12:16.209Z,62.45
2018-06-05T08:13:16.173Z,62.43
2018-06-05T08:14:16.195Z,62.43
2018-06-05T08:15:16.240Z,62.46
2018-06-05T08:16:16.075Z,62.44
2018-06-05T08:17:16.281Z,62.46
2018-06-05T08:18:16.441Z,62.44
2018-06-05T08:19:16.165Z,62.47
2018-06-05T08:20:16.132Z,62.45
2018-06-05T08:21:16.327Z,62.47
2018-06-05T08:22:16.118Z,62.48
2018-06-05T08:23:16.057Z,62.44
2018-06-05T08:24:16.051Z,62.48
2018-06-05T08:25:16.221Z,62.45
2018-06-05T08:26:16.043Z,62.45
2018-06-05T08:27:16.162Z,62.45
2018-06-05T08:28:16.095Z,62.47
2018-06-05T08:29:16.126Z,62.42
2018-06-05T08:30:16.348Z,62.45
2018-06-05T08:31:16.131Z,62.48
2018-06-05T08:32:16.209Z,62.48
2018-06-05T08:33:26.558Z,62.41
2018-06-05T08:34:19.664Z,62.48
2018-06-05T08:35:16.274Z,62.45
2018-06-05T08:36:16.291Z,62.49
2018-06-05T08:37:16.109Z,62.47
2018-06-05T08:38:16.007Z,62.48
2018-06-05T08:39:16.207Z,62.47
2018-06-05T08:40:16.248Z,62.43
2018-06-05T08:41:16.209Z,62.47
2018-06-05T08:42:16.735Z,62.5
2018-06-05T08:43:15.970Z,62.46
2018-06-05T08:44:16.495Z,62.41
2018-06-05T08:45:16.642Z,62.47
2018-06-05T08:46:16.198Z,62.44
2018-06-05T08:47:16.031Z,62.44
2018-06-05T08:48:16.306Z,62.46
2018-06-05T08:49:16.327Z,62.46
2018-06-05T08:50:16.238Z,62.46
2018-06-05T08:51:16.417Z,62.46
2018-06-05T08:52:15.976Z,62.42
2018-06-05T08:53:16.171Z,62.47
2018-06-05T08:54:16.718Z,62.46
2018-06-05T08:55:16.226Z,62.43
2018-06-05T08:56:16.132Z,62.44
2018-06-05T08:57:16.154Z,62.43
2018-06-05T08:58:16.153Z,62.44
2018-06-05T08:59:16.104Z,62.46
2018-06-05T09:00:16.055Z,62.44
2018-06-05T09:01:16.290Z,62.46
2018-06-05T09:02:26.691Z,62.44
2018-06-05T09:03:16.534Z,62.45
2018-06-05T09:04:16.477Z,62.46
2018-06-05T09:05:16.782Z,62.46
2018-06-05T09:06:16.429Z,62.46
2018-06-05T09:07:16.690Z,62.46
2018-06-05T09:08:16.053Z,62.43
2018-06-05T09:09:16.019Z,62.47
2018-06-05T09:10:16.104Z,62.42
2018-06-05T09:11:16.038Z,62.46
2018-06-05T09:12:15.933Z,62.47
2018-06-05T09:13:16.088Z,62.45
2018-06-05T09:14:16.207Z,62.49
2018-06-05T09:15:16.169Z,62.46
2018-06-05T09:16:16.411Z,62.42
2018-06-05T09:17:16.129Z,62.46
2018-06-05T09:18:41.532Z,62.46
2018-06-05T09:19:16.394Z,62.44
2018-06-05T09:20:16.094Z,62.46
2018-06-05T09:21:16.051Z,62.44
2018-06-05T09:22:16.263Z,62.49
2018-06-05T09:23:15.981Z,62.46
2018-06-05T09:24:16.292Z,62.46
2018-06-05T09:25:16.166Z,62.44
2018-06-05T09:26:16.189Z,62.44
2018-06-05T09:27:16.076Z,62.48
2018-06-05T09:28:16.375Z,62.48
2018-06-05T09:29:16.090Z,62.44
2018-06-05T09:30:16.237Z,62.48
2018-06-05T09:31:16.096Z,62.44
2018-06-05T09:32:16.024Z,62.5
2018-06-05T09:33:16.068Z,62.48
2018-06-05T09:34:16.596Z,62.46
2018-06-05T09:35:15.909Z,62.47
2018-06-05T09:36:16.115Z,62.48
2018-06-05T09:37:16.295Z,62.48
2018-06-05T09:38:16.415Z,62.46
2018-06-05T09:39:16.027Z,62.47
2018-06-05T09:40:15.955Z,62.44
2018-06-05T09:41:16.378Z,62.43
2018-06-05T09:42:16.173Z,62.49
2018-06-05T09:43:16.137Z,62.5
2018-06-05T09:44:16.206Z,62.48
2018-06-05T09:45:16.096Z,62.49
2018-06-05T09:46:16.144Z,62.47
2018-06-05T09:47:16.334Z,62.47
2018-06-05T09:48:16.160Z,62.5
2018-06-05T09:49:16.012Z,62.47
2018-06-05T09:50:16.829Z,62.47
2018-06-05T09:51:16.419Z,62.48
2018-06-05T09:52:16.198Z,62.47
2018-06-05T09:53:16.240Z,62.51
2018-06-05T09:54:16.099Z,62.51
2018-06-05T09:55:16.168Z,62.49
2018-06-05T09:56:16.627Z,62.52
2018-06-05T09:57:16.256Z,62.48
2018-06-05T09:58:18.208Z,62.49
2018-06-05T09:59:17.382Z,62.46
2018-06-05T10:00:16.203Z,62.5
2018-06-05T10:01:16.661Z,62.48
2018-06-05T10:02:16.091Z,62.48
2018-06-05T10:03:16.368Z,62.51
2018-06-05T10:04:16.613Z,62.46
2018-06-05T10:05:15.919Z,62.48
2018-06-05T10:06:16.116Z,62.47
2018-06-05T10:07:16.381Z,62.5
2018-06-05T10:08:16.455Z,62.53
2018-06-05T10:09:16.476Z,62.46
2018-06-05T10:10:16.601Z,62.5
2018-06-05T10:11:16.038Z,62.51
2018-06-05T10:12:16.165Z,62.49
2018-06-05T10:13:16.100Z,62.5
2018-06-05T10:14:16.248Z,62.46
2018-06-05T10:15:16.430Z,62.5
2018-06-05T10:16:16.232Z,62.5
2018-06-05T10:17:16.458Z,62.48
2018-06-05T10:18:16.332Z,62.47
2018-06-05T10:19:15.990Z,62.48
2018-06-05T10:20:16.902Z,62.48
2018-06-05T10:21:16.852Z,62.47
2018-06-05T10:22:15.986Z,62.48
2018-06-05T10:23:16.228Z,62.49
2018-06-05T10:24:15.946Z,62.5
2018-06-05T10:25:16.208Z,62.48
2018-06-05T10:26:16.379Z,62.47
2018-06-05T10:27:16.682Z,62.46
2018-06-05T10:28:16.026Z,62.46
2018-06-05T10:29:16.069Z,62.48
2018-06-05T10:30:16.124Z,62.48
2018-06-05T10:31:16.039Z,62.47
2018-06-05T10:32:16.362Z,62.44
2018-06-05T10:33:16.116Z,62.5
2018-06-05T10:34:16.082Z,62.43
2018-06-05T10:35:16.151Z,62.46
2018-06-05T10:36:16.204Z,62.49
2018-06-05T10:37:16.361Z,62.49
2018-06-05T10:38:16.197Z,62.48
2018-06-05T10:39:16.207Z,62.45
2018-06-05T10:40:16.487Z,62.45
2018-06-05T10:41:16.156Z,62.45
2018-06-05T10:42:16.025Z,62.5
2018-06-05T10:43:15.933Z,62.46
2018-06-05T10:44:16.655Z,62.52
2018-06-05T10:45:16.219Z,62.5
2018-06-05T10:46:16.346Z,62.48
2018-06-05T10:47:16.148Z,62.51
2018-06-05T10:48:16.138Z,62.46
2018-06-05T10:49:16.057Z,62.5
2018-06-05T10:50:16.004Z,62.47
2018-06-05T10:51:16.228Z,62.5
2018-06-05T10:52:15.952Z,62.46
2018-06-05T10:53:16.165Z,62.4
2018-06-05T10:54:16.205Z,62.47
2018-06-05T10:55:16.097Z,62.47
2018-06-05T10:56:16.177Z,62.48
2018-06-05T10:57:15.965Z,62.46
2018-06-05T10:58:16.185Z,62.49
2018-06-05T10:59:16.599Z,62.46
2018-06-05T11:00:15.946Z,62.47
2018-06-05T11:01:15.989Z,62.47
2018-06-05T11:02:16.015Z,62.5
2018-06-05T11:03:16.042Z,62.49
2018-06-05T11:04:16.119Z,62.5
2018-06-05T11:05:16.127Z,62.44
2018-06-05T11:06:16.051Z,62.49
2018-06-05T11:07:16.327Z,62.67
2018-06-05T11:08:16.128Z,62.6
2018-06-05T11:09:16.125Z,62.55
2018-06-05T11:10:16.179Z,62.66
2018-06-05T11:11:16.110Z,62.66
2018-06-05T11:12:15.983Z,62.72
2018-06-05T11:13:16.111Z,62.73
2018-06-05T11:14:16.153Z,62.7
2018-06-05T11:15:16.044Z,62.63
2018-06-05T11:16:16.174Z,62.62
2018-06-05T11:17:16.132Z,62.66
2018-06-05T11:18:16.466Z,62.57
2018-06-05T11:19:16.181Z,62.57
2018-06-05T11:20:16.125Z,62.53
2018-06-05T11:21:15.966Z,62.5
2018-06-05T11:22:16.052Z,62.51
2018-06-05T11:23:15.884Z,62.5
2018-06-05T11:24:16.174Z,62.48
2018-06-05T11:25:16.143Z,62.46
2018-06-05T11:26:16.119Z,62.46
2018-06-05T11:27:16.081Z,62.5
2018-06-05T11:28:16.137Z,62.46
2018-06-05T11:29:16.154Z,62.46
2018-06-05T11:30:16.100Z,62.49
2018-06-05T11:31:15.868Z,62.45
2018-06-05T11:32:15.927Z,62.49
2018-06-05T11:33:16.210Z,62.48
2018-06-05T11:34:16.150Z,62.48
2018-06-05T11:35:16.093Z,62.4
2018-06-05T11:36:16.054Z,62.45
2018-06-05T11:37:16.018Z,62.4
2018-06-05T11:38:16.162Z,62.44
2018-06-05T11:39:16.372Z,62.37
2018-06-05T11:40:15.953Z,62.32
2018-06-05T11:41:16.031Z,62.39
2018-06-05T11:42:15.985Z,62.41
2018-06-05T11:43:16.034Z,62.45
2018-06-05T11:44:15.985Z,62.41
2018-06-05T11:45:16.051Z,62.39
2018-06-05T11:46:15.992Z,62.37
2018-06-05T11:47:16.128Z,62.35
2018-06-05T11:48:16.059Z,62.33
2018-06-05T11:49:16.196Z,62.34
2018-06-05T11:50:16.005Z,62.36
2018-06-05T11:51:16.139Z,62.36
2018-06-05T11:52:15.927Z,62.37
2018-06-05T11:53:16.130Z,62.43
2018-06-05T11:54:16.342Z,62.38
2018-06-05T11:55:16.014Z,62.37
2018-06-05T11:56:16.023Z,62.32
2018-06-05T11:57:16.306Z,62.4
2018-06-05T11:58:16.349Z,62.36
2018-06-05T11:59:15.948Z,62.4
2018-06-05T12:00:16.101Z,62.4
2018-06-05T12:01:15.936Z,62.45
2018-06-05T12:02:16.248Z,62.4
2018-06-05T12:03:15.997Z,62.42
2018-06-05T12:04:16.213Z,62.42
2018-06-05T12:05:16.064Z,62.49
2018-06-05T12:06:16.004Z,62.36
2018-06-05T12:07:16.057Z,62.33
2018-06-05T12:08:16.044Z,62.28
2018-06-05T12:09:16.158Z,62.32
2018-06-05T12:10:15.882Z,62.33
2018-06-05T12:11:15.870Z,62.48
2018-06-05T12:12:16.261Z,62.48
2018-06-05T12:13:16.233Z,62.6
2018-06-05T12:14:16.059Z,62.56
2018-06-05T12:15:15.942Z,62.58
2018-06-05T12:16:15.980Z,62.62
2018-06-05T12:17:15.945Z,62.62
2018-06-05T12:18:16.195Z,62.6
2018-06-05T12:19:15.981Z,62.54
2018-06-05T12:20:16.112Z,62.57
2018-06-05T12:21:16.179Z,62.52
2018-06-05T12:22:16.211Z,62.58
2018-06-05T12:23:16.001Z,62.57
2018-06-05T12:24:15.913Z,62.52
2018-06-05T12:25:16.027Z,62.55
2018-06-05T12:26:15.974Z,62.55
2018-06-05T12:27:16.111Z,62.52
2018-06-05T12:28:15.988Z,62.52
2018-06-05T12:29:16.163Z,62.51
2018-06-05T12:30:15.982Z,62.5
2018-06-05T12:31:16.187Z,62.47
2018-06-05T12:32:15.913Z,62.53
2018-06-05T12:33:16.261Z,62.53
2018-06-05T12:34:16.050Z,62.53
2018-06-05T12:35:16.143Z,62.55
2018-06-05T12:36:15.925Z,62.48
2018-06-05T12:37:16.051Z,62.5
2018-06-05T12:38:15.975Z,62.45
2018-06-05T12:39:15.944Z,62.53
2018-06-05T12:40:16.043Z,62.54
2018-06-05T12:41:15.914Z,62.44
2018-06-05T12:42:15.874Z,62.46
2018-06-05T12:43:16.200Z,62.45
2018-06-05T12:44:16.089Z,62.45
2018-06-05T12:45:16.135Z,62.5
2018-06-05T12:46:16.136Z,62.49
2018-06-05T12:47:15.970Z,62.48
2018-06-05T12:48:15.982Z,62.45
2018-06-05T12:49:16.099Z,62.4
2018-06-05T12:50:16.232Z,62.43
2018-06-05T12:51:16.222Z,62.47
2018-06-05T12:52:16.112Z,62.43
2018-06-05T12:53:15.976Z,62.41
2018-06-05T12:54:15.935Z,62.4
2018-06-05T12:55:16.209Z,62.42